Keldron, SD (57634)

8:29 PM MDT on September 02, 2014 (GMT -0600)
NonFedAWOS LEMMON SD US SUPERAWOS | Change Station
CLOSE
Current Station
Personal Weather Station
Location: Lemmon, SD
Elevation: 2570 ft
Nearby Weather Stations

Elev 2570 ft 45.92 °N, 102.11 °W | Updated 34 minutes ago

Clear
Clear
63 °F
Feels Like 63 °F
N
0
Wind Variable Wind from North
Gusts 0.0 mph

Today
High -- | Low -- °F
--% Chance of Precip.
Yesterday
High -- | Low -- °F
Precip. -- in
6:09 AM 7:23 PM
First Quarter, 57% visible
Pressure 29.79 in
Visibility 10.0 miles
Clouds Clear
Dew Point 50 °F
Humidity 63%
Rainfall -999.00 in
Snow Depth Not available.
UV 0 out of 12
Pollen 9.40 out of 12
Air Quality Not available.
Flu Activity Not available.
METAR KHEI 030153Z AUTO 02003KT 10SM CLR 16/08 A2980 RMK AO2 SLP086 T01610083

More Conditions Fewer Conditions

Pressure 29.79 in
Visibility 10.0 miles
Clouds Clear
Dew Point 50 °F
Humidity 63%
Rainfall -999.00 in
Snow Depth Not available.
UV 0 out of 12
Pollen 9.40 out of 12
Air Quality Not available.
Flu Activity Not available.
METAR KHEI 030153Z AUTO 02003KT 10SM CLR 16/08 A2980 RMK AO2 SLP086 T01610083

More Conditions Fewer Conditions

10-Day Weather Forecast

Almanac

Astronomy

Sep. 02, 2014 Rise Set
Actual Time 6:09 AM MDT 7:23 PM MDT
Civil Twilight 5:39 AM MDT 7:54 PM MDT
Nautical Twilight 5:02 AM MDT 8:31 PM MDT
Astronomical Twilight 4:22 AM MDT 9:10 PM MDT
Moon 2:18 PM MDT (9/2) 11:57 PM MDT (9/2)
Length of Visible Light 14h 15m
Length of Day
13h 14m
Tomorrow will be 3m 7s shorter.
First Quarter, 57% of the Moon is Illuminated
Today
First Quarter
Sep 8
Full
Sep 15
Last Quarter
Sep 24
New
Oct 1
First Quarter

Today's Extremes

State Highs State Lows

Community

WunderPhotos

Upload Photos

1,749,841 photos uploaded!

Nearby

Snow Depth

Station Depth Elevation
Blind Park 0 in 6890 ft

Earthquake Activity

City Distance Mag. Time & Date
No recent earthquake activity has been reported nearby.
Minimum magnitude displayed is 2.5.

Coastal Water Temperatures

Place Temperature
No Stations Reporting

Nearby Weather Stations